createdAt,value
2022-07-29T00:02:38.980Z,49.37
2022-07-29T00:05:42.209Z,49.34
2022-07-29T00:08:44.304Z,49.47
2022-07-29T00:11:46.432Z,49.70
2022-07-29T00:14:48.561Z,49.69
2022-07-29T00:17:51.169Z,49.79
2022-07-29T00:20:53.365Z,49.34
2022-07-29T00:23:55.447Z,49.27
2022-07-29T00:26:57.525Z,49.34
2022-07-29T00:29:59.559Z,49.42
2022-07-29T00:33:01.612Z,49.47
2022-07-29T00:36:04.066Z,49.69
2022-07-29T00:39:06.085Z,49.95
2022-07-29T00:42:08.894Z,49.63
2022-07-29T00:45:11.448Z,49.67
2022-07-29T00:48:13.749Z,49.54
2022-07-29T00:51:16.226Z,49.74
2022-07-29T00:54:18.778Z,49.57
2022-07-29T00:57:21.686Z,49.73
2022-07-29T01:00:26.938Z,49.73
2022-07-29T01:03:29.026Z,49.57
2022-07-29T01:06:31.303Z,49.56
2022-07-29T01:09:45.263Z,49.66
2022-07-29T01:12:51.443Z,49.57
2022-07-29T01:16:02.437Z,49.95
2022-07-29T01:19:43.176Z,49.98
2022-07-29T01:23:05.952Z,49.90
2022-07-29T01:26:46.597Z,50.18
2022-07-29T01:29:55.191Z,50.40
2022-07-29T01:33:03.883Z,50.79
2022-07-29T01:36:12.537Z,51.17
2022-07-29T01:39:28.016Z,51.08
2022-07-29T01:42:37.767Z,51.26
2022-07-29T01:45:41.547Z,50.88
2022-07-29T01:48:58.497Z,51.20
2022-07-29T01:52:09.601Z,50.95
2022-07-29T01:55:15.999Z,51.08
2022-07-29T01:58:20.003Z,51.08
2022-07-29T02:01:25.131Z,51.07
2022-07-29T02:04:30.286Z,51.12
2022-07-29T02:07:33.895Z,51.21
2022-07-29T02:10:37.062Z,51.24
2022-07-29T02:13:40.000Z,51.08
2022-07-29T02:16:42.839Z,50.72
2022-07-29T02:19:46.320Z,50.53
2022-07-29T02:22:49.706Z,50.62
2022-07-29T02:25:57.796Z,50.66
2022-07-29T02:29:01.055Z,51.11
2022-07-29T02:32:05.319Z,50.69
2022-07-29T02:35:09.613Z,50.95
2022-07-29T02:38:34.220Z,50.79
2022-07-29T02:41:46.909Z,50.92
2022-07-29T02:44:49.371Z,50.71
2022-07-29T02:47:52.454Z,50.79
2022-07-29T02:51:02.310Z,50.95
2022-07-29T02:54:08.408Z,51.14
2022-07-29T02:57:21.240Z,51.21
2022-07-29T03:00:26.327Z,51.49
2022-07-29T03:03:33.220Z,51.53
2022-07-29T03:06:38.071Z,51.83
2022-07-29T03:09:42.770Z,51.81
2022-07-29T03:12:45.893Z,52.07
2022-07-29T03:15:48.922Z,52.30
2022-07-29T03:18:52.323Z,52.36
2022-07-29T03:21:56.955Z,52.34
2022-07-29T03:24:59.005Z,52.42
2022-07-29T03:28:01.671Z,52.95
2022-07-29T03:31:03.776Z,52.23
2022-07-29T03:34:07.806Z,51.88
2022-07-29T03:37:09.890Z,51.87
2022-07-29T03:40:16.965Z,52.08
2022-07-29T03:43:20.554Z,52.07
2022-07-29T03:46:24.949Z,51.66
2022-07-29T03:49:28.446Z,51.59
2022-07-29T03:52:31.275Z,51.95
2022-07-29T03:55:38.435Z,52.11
2022-07-29T03:58:40.764Z,52.15
2022-07-29T04:01:43.554Z,52.30
2022-07-29T04:04:45.828Z,52.65
2022-07-29T04:07:49.561Z,52.43
2022-07-29T04:10:53.343Z,52.15
2022-07-29T04:13:55.398Z,53.23
2022-07-29T04:16:57.440Z,53.70
2022-07-29T04:19:59.468Z,53.27
2022-07-29T04:23:01.490Z,52.90
2022-07-29T04:26:03.666Z,53.72
2022-07-29T04:29:05.753Z,53.78
2022-07-29T04:32:07.938Z,54.15
2022-07-29T04:35:09.960Z,53.72
2022-07-29T04:38:15.858Z,53.29
2022-07-29T04:41:20.769Z,53.46
2022-07-29T04:44:27.652Z,53.61
2022-07-29T04:47:30.895Z,53.95
2022-07-29T04:50:33.450Z,56.61
2022-07-29T04:53:35.473Z,57.00
2022-07-29T04:56:37.592Z,57.29
2022-07-29T04:59:39.650Z,56.93
2022-07-29T05:02:41.931Z,57.10
2022-07-29T05:05:44.058Z,57.55
2022-07-29T05:08:46.157Z,58.06
2022-07-29T05:11:48.337Z,58.48
2022-07-29T05:14:50.496Z,59.35
2022-07-29T05:17:52.834Z,58.40
2022-07-29T05:20:54.928Z,58.64
2022-07-29T05:23:57.012Z,58.45
2022-07-29T05:26:59.175Z,61.60
2022-07-29T05:30:01.281Z,60.40
2022-07-29T05:33:03.340Z,59.40
2022-07-29T05:36:08.912Z,59.70
2022-07-29T05:39:11.018Z,58.90
2022-07-29T05:42:13.194Z,58.16
2022-07-29T05:45:15.278Z,58.80
2022-07-29T05:48:17.328Z,58.61
2022-07-29T05:51:19.372Z,58.39
2022-07-29T05:54:21.863Z,58.75
2022-07-29T05:57:25.041Z,59.01
2022-07-29T06:00:29.545Z,59.29
2022-07-29T06:03:31.682Z,58.68
2022-07-29T06:06:34.743Z,58.25
2022-07-29T06:09:36.789Z,57.67
2022-07-29T06:12:38.881Z,58.76
2022-07-29T06:15:41.044Z,58.16
2022-07-29T06:18:43.134Z,58.27
2022-07-29T06:21:46.192Z,58.26
2022-07-29T06:24:48.284Z,58.20
2022-07-29T06:27:50.387Z,57.55
2022-07-29T06:30:52.654Z,57.13
2022-07-29T06:33:54.766Z,58.09
2022-07-29T06:36:57.520Z,58.54
2022-07-29T06:40:18.204Z,58.54
2022-07-29T06:43:20.620Z,58.12
2022-07-29T06:46:23.817Z,57.87
2022-07-29T06:49:27.207Z,57.51
2022-07-29T06:52:29.349Z,57.89
2022-07-29T06:55:31.541Z,59.92
2022-07-29T06:58:33.710Z,59.28
2022-07-29T07:01:40.401Z,57.71
2022-07-29T07:04:42.884Z,57.07
2022-07-29T07:07:45.142Z,55.80
2022-07-29T07:10:47.419Z,55.49
2022-07-29T07:13:50.701Z,56.03
2022-07-29T07:16:52.838Z,54.92
2022-07-29T07:19:56.815Z,54.54
2022-07-29T07:22:59.178Z,54.15
2022-07-29T07:26:01.485Z,53.74
2022-07-29T07:29:03.645Z,53.92
2022-07-29T07:32:06.011Z,53.65
2022-07-29T07:35:10.240Z,53.58
2022-07-29T07:38:12.477Z,53.51
2022-07-29T07:41:14.832Z,53.44
2022-07-29T07:44:17.507Z,53.24
2022-07-29T07:47:24.425Z,52.67
2022-07-29T07:50:30.044Z,52.58
2022-07-29T07:53:32.532Z,52.21
2022-07-29T07:56:35.435Z,51.76
2022-07-29T07:59:37.728Z,52.70
2022-07-29T08:02:40.543Z,52.65
2022-07-29T08:05:42.826Z,52.18
2022-07-29T08:08:45.096Z,51.59
2022-07-29T08:11:52.048Z,51.27
2022-07-29T08:14:55.037Z,50.87
2022-07-29T08:17:57.192Z,50.40
2022-07-29T08:20:59.981Z,50.59
2022-07-29T08:24:21.355Z,50.40
2022-07-29T08:30:46.158Z,49.24
2022-07-29T08:33:48.245Z,48.97
2022-07-29T08:36:50.299Z,48.86
2022-07-29T08:39:53.588Z,48.55
2022-07-29T08:42:55.668Z,48.05
2022-07-29T08:45:57.854Z,47.44
2022-07-29T08:49:00.333Z,46.80
2022-07-29T08:52:02.852Z,46.57
2022-07-29T08:55:07.440Z,46.58
2022-07-29T08:58:10.398Z,46.80
2022-07-29T09:01:17.595Z,46.83
2022-07-29T09:04:22.424Z,47.18
2022-07-29T09:07:24.528Z,47.62
2022-07-29T09:10:37.419Z,47.65
2022-07-29T09:13:39.552Z,47.25
2022-07-29T09:16:53.652Z,47.06
2022-07-29T09:20:10.563Z,46.89
2022-07-29T09:23:13.048Z,46.86
2022-07-29T09:26:30.844Z,46.97
2022-07-29T09:29:36.122Z,47.00
2022-07-29T09:32:59.438Z,46.91
2022-07-29T09:36:09.530Z,46.71
2022-07-29T09:39:11.922Z,45.79
2022-07-29T09:42:14.351Z,45.71
2022-07-29T09:45:32.953Z,45.88
2022-07-29T09:48:35.030Z,45.68
2022-07-29T09:51:38.213Z,44.74
2022-07-29T09:54:41.287Z,43.94
2022-07-29T09:57:44.018Z,43.52
2022-07-29T10:00:47.371Z,44.42
2022-07-29T10:03:55.569Z,44.80
2022-07-29T10:07:05.002Z,44.95
2022-07-29T10:10:07.929Z,44.81
2022-07-29T10:13:16.543Z,45.09
2022-07-29T10:16:19.010Z,45.07
2022-07-29T10:19:21.350Z,44.96
2022-07-29T10:22:51.560Z,45.07
2022-07-29T10:25:47.353Z,45.41
2022-07-29T10:28:49.457Z,45.06
2022-07-29T10:31:56.818Z,43.83
2022-07-29T10:35:19.868Z,44.20
2022-07-29T10:39:05.734Z,44.16
2022-07-29T10:42:17.050Z,44.22
2022-07-29T10:45:23.335Z,44.49
2022-07-29T10:48:25.707Z,45.02
2022-07-29T10:51:55.822Z,44.99
2022-07-29T10:55:01.227Z,44.93
2022-07-29T10:58:19.144Z,44.96
2022-07-29T11:01:37.110Z,45.13
2022-07-29T11:04:45.756Z,45.28
2022-07-29T11:08:20.389Z,45.16
2022-07-29T11:11:36.527Z,44.87
2022-07-29T11:15:00.015Z,44.44
2022-07-29T11:18:02.262Z,44.16
2022-07-29T11:21:04.444Z,43.88
2022-07-29T11:24:30.017Z,44.09
2022-07-29T11:27:40.405Z,44.94
2022-07-29T11:31:09.293Z,43.22
2022-07-29T11:38:08.698Z,43.70
2022-07-29T11:41:27.206Z,43.94
2022-07-29T11:45:41.606Z,45.67
2022-07-29T11:48:32.082Z,45.28
2022-07-29T11:51:35.771Z,44.59
2022-07-29T11:54:57.815Z,44.98
2022-07-29T11:58:04.041Z,44.32
2022-07-29T12:01:07.268Z,44.67
2022-07-29T12:04:09.894Z,44.91
2022-07-29T12:07:15.599Z,45.30
2022-07-29T12:10:19.855Z,45.49
2022-07-29T12:13:40.368Z,45.76
2022-07-29T12:16:42.586Z,45.58
2022-07-29T12:19:46.227Z,44.44
2022-07-29T12:22:50.223Z,44.00
2022-07-29T12:25:53.187Z,43.26
2022-07-29T12:28:56.767Z,42.87
2022-07-29T12:31:59.421Z,43.45
2022-07-29T12:35:11.236Z,44.83
2022-07-29T12:38:15.312Z,43.19
2022-07-29T12:41:17.631Z,43.19
2022-07-29T12:44:19.736Z,43.23
2022-07-29T12:47:22.513Z,42.77
2022-07-29T12:50:26.549Z,42.60
2022-07-29T12:53:29.181Z,42.48
2022-07-29T12:56:46.831Z,42.81
2022-07-29T13:00:11.732Z,43.19
2022-07-29T13:03:13.861Z,42.67
2022-07-29T13:06:42.625Z,42.90
2022-07-29T13:09:48.278Z,44.07
2022-07-29T13:13:15.396Z,44.81
2022-07-29T13:16:17.522Z,43.01
2022-07-29T13:19:19.690Z,42.71
2022-07-29T13:22:24.058Z,42.32
2022-07-29T13:25:32.564Z,41.12
2022-07-29T13:28:35.235Z,41.10
2022-07-29T13:31:37.310Z,39.98
2022-07-29T13:34:39.651Z,40.35
2022-07-29T13:37:41.934Z,40.23
2022-07-29T13:40:44.599Z,40.63
2022-07-29T13:43:46.687Z,41.33
2022-07-29T13:46:52.211Z,42.32
2022-07-29T13:49:54.555Z,41.45
2022-07-29T13:52:56.757Z,40.92
2022-07-29T13:55:59.513Z,40.68
2022-07-29T13:59:01.639Z,40.11
2022-07-29T14:02:04.448Z,40.22
2022-07-29T14:05:11.057Z,40.07
2022-07-29T14:08:13.338Z,40.55
2022-07-29T14:11:15.399Z,39.96
2022-07-29T14:14:17.813Z,40.33
2022-07-29T14:17:20.221Z,40.94
2022-07-29T14:20:22.328Z,41.62
2022-07-29T14:23:24.518Z,41.54
2022-07-29T14:26:28.568Z,41.60
2022-07-29T14:29:37.560Z,41.43
2022-07-29T14:32:40.556Z,41.76
2022-07-29T14:35:42.667Z,42.02
2022-07-29T14:38:44.772Z,42.62
2022-07-29T14:41:47.149Z,43.17
2022-07-29T14:44:50.238Z,43.51
2022-07-29T14:47:56.550Z,43.77
2022-07-29T14:51:04.289Z,44.01
2022-07-29T14:54:07.094Z,44.32
2022-07-29T14:57:09.786Z,44.43
2022-07-29T15:00:13.554Z,44.48
2022-07-29T15:03:23.831Z,44.35
2022-07-29T15:06:26.795Z,44.31
2022-07-29T15:09:28.890Z,44.42
2022-07-29T15:12:32.540Z,44.32
2022-07-29T15:15:34.768Z,44.34
2022-07-29T15:18:39.124Z,44.50
2022-07-29T15:21:48.743Z,44.60
2022-07-29T15:24:51.245Z,44.59
2022-07-29T15:27:55.678Z,44.56
2022-07-29T15:31:01.260Z,44.54
2022-07-29T15:34:05.931Z,44.65
2022-07-29T15:37:08.592Z,44.69
2022-07-29T15:40:11.298Z,44.65
2022-07-29T15:43:13.554Z,44.65
2022-07-29T15:46:35.848Z,44.77
2022-07-29T15:49:47.860Z,44.72
2022-07-29T15:52:50.920Z,44.76
2022-07-29T15:55:53.224Z,44.73
2022-07-29T15:58:55.368Z,44.80
2022-07-29T16:01:57.569Z,44.72
2022-07-29T16:04:59.672Z,44.72
2022-07-29T16:08:01.728Z,44.71
2022-07-29T16:11:03.909Z,44.77
2022-07-29T16:14:05.991Z,44.77
2022-07-29T16:17:14.354Z,44.67
2022-07-29T16:20:17.645Z,44.64
2022-07-29T16:23:19.783Z,44.61
2022-07-29T16:26:21.899Z,44.57
2022-07-29T16:29:24.081Z,44.53
2022-07-29T16:32:26.201Z,44.57
2022-07-29T16:35:39.804Z,44.61
2022-07-29T16:38:46.977Z,44.62
2022-07-29T16:41:49.714Z,44.67
2022-07-29T16:44:51.828Z,44.70
2022-07-29T16:48:00.141Z,44.74
2022-07-29T16:51:03.302Z,44.64
2022-07-29T16:54:05.668Z,44.64
2022-07-29T16:57:07.946Z,44.68
2022-07-29T17:00:11.098Z,44.77
2022-07-29T17:03:13.617Z,44.77
2022-07-29T17:06:15.712Z,44.79
2022-07-29T17:09:17.803Z,44.80
2022-07-29T17:12:19.995Z,44.91
2022-07-29T17:15:22.127Z,44.77
2022-07-29T17:18:24.166Z,44.79
2022-07-29T17:21:27.931Z,44.87
2022-07-29T17:24:30.009Z,44.93
2022-07-29T17:27:32.607Z,44.13
2022-07-29T17:30:34.668Z,44.76
2022-07-29T17:33:36.984Z,44.73
2022-07-29T17:36:39.091Z,44.81
2022-07-29T17:39:42.311Z,44.77
2022-07-29T17:42:44.394Z,44.50
2022-07-29T17:45:49.914Z,44.86
2022-07-29T17:48:54.193Z,44.96
2022-07-29T17:52:00.499Z,45.04
2022-07-29T17:55:03.212Z,45.09
2022-07-29T17:58:08.395Z,45.16
2022-07-29T18:01:10.767Z,45.16
2022-07-29T18:04:13.064Z,45.24
2022-07-29T18:07:15.266Z,44.96
2022-07-29T18:10:17.364Z,45.27
2022-07-29T18:13:20.063Z,45.26
2022-07-29T18:16:22.157Z,45.20
2022-07-29T18:19:24.284Z,45.31
2022-07-29T18:22:26.485Z,45.32
2022-07-29T18:25:29.569Z,45.32
2022-07-29T18:28:32.751Z,45.32
2022-07-29T18:31:34.870Z,45.32
2022-07-29T18:34:37.088Z,45.34
2022-07-29T18:38:00.782Z,45.23
2022-07-29T18:41:01.553Z,45.26
2022-07-29T18:44:03.670Z,45.33
2022-07-29T18:47:06.647Z,45.22
2022-07-29T18:50:13.460Z,45.25
2022-07-29T18:53:15.651Z,45.32
2022-07-29T18:56:18.173Z,45.21
2022-07-29T18:59:21.436Z,45.18
2022-07-29T19:02:23.682Z,45.04
2022-07-29T19:05:25.974Z,45.27
2022-07-29T19:08:28.106Z,45.06
2022-07-29T19:11:30.369Z,44.87
2022-07-29T19:14:32.462Z,44.60
2022-07-29T19:17:34.640Z,44.39
2022-07-29T19:20:38.433Z,44.09
2022-07-29T19:24:06.395Z,43.99
2022-07-29T19:27:02.707Z,43.95
2022-07-29T19:30:07.021Z,43.79
2022-07-29T19:33:09.094Z,43.67
2022-07-29T19:36:11.541Z,44.05
2022-07-29T19:39:15.260Z,43.22
2022-07-29T19:42:17.311Z,43.88
2022-07-29T19:45:21.232Z,43.51
2022-07-29T19:48:23.450Z,40.94
2022-07-29T19:51:25.978Z,40.96
2022-07-29T19:54:28.066Z,39.78
2022-07-29T19:57:35.913Z,40.11
2022-07-29T20:00:43.643Z,40.26
2022-07-29T20:03:46.637Z,40.40
2022-07-29T20:06:49.505Z,41.05
2022-07-29T20:09:54.793Z,40.88
2022-07-29T20:12:56.867Z,40.33
2022-07-29T20:15:59.724Z,40.39
2022-07-29T20:19:01.899Z,40.05
2022-07-29T20:22:04.073Z,40.46
2022-07-29T20:25:09.631Z,40.92
2022-07-29T20:28:11.963Z,40.80
2022-07-29T20:31:16.589Z,40.76
2022-07-29T20:34:18.994Z,40.45
2022-07-29T20:37:21.072Z,40.39
2022-07-29T20:40:24.695Z,40.52
2022-07-29T20:43:27.551Z,41.01
2022-07-29T20:46:29.908Z,40.26
2022-07-29T20:49:32.166Z,40.58
2022-07-29T20:52:34.653Z,40.27
2022-07-29T20:55:36.783Z,40.11
2022-07-29T20:58:40.330Z,40.35
2022-07-29T21:01:42.423Z,40.18
2022-07-29T21:04:44.508Z,40.41
2022-07-29T21:07:46.585Z,40.78
2022-07-29T21:10:48.721Z,40.33
2022-07-29T21:13:50.814Z,40.40
2022-07-29T21:16:53.128Z,40.51
2022-07-29T21:19:55.353Z,40.52
2022-07-29T21:22:58.017Z,40.53
2022-07-29T21:26:00.162Z,40.05
2022-07-29T21:29:02.240Z,40.20
2022-07-29T21:32:04.680Z,39.94
2022-07-29T21:35:18.268Z,39.86
2022-07-29T21:38:29.896Z,39.88
2022-07-29T21:41:32.249Z,40.11
2022-07-29T21:44:38.112Z,40.00
2022-07-29T21:47:40.232Z,40.41
2022-07-29T21:50:42.539Z,40.23
2022-07-29T21:53:44.641Z,39.56
2022-07-29T21:56:51.228Z,40.13
2022-07-29T21:59:53.537Z,39.23
2022-07-29T22:02:55.922Z,39.19
2022-07-29T22:05:57.977Z,39.09
2022-07-29T22:09:00.573Z,38.95
2022-07-29T22:12:02.894Z,39.40
2022-07-29T22:15:05.420Z,39.51
2022-07-29T22:18:07.708Z,39.33
2022-07-29T22:21:09.747Z,39.70
2022-07-29T22:24:11.823Z,39.62
2022-07-29T22:27:14.091Z,39.78
2022-07-29T22:30:16.690Z,40.37
2022-07-29T22:33:18.890Z,40.29
2022-07-29T22:36:21.004Z,40.46
2022-07-29T22:39:23.160Z,40.52
2022-07-29T22:42:25.616Z,40.82
2022-07-29T22:45:27.772Z,41.16
2022-07-29T22:48:29.872Z,41.08
2022-07-29T22:51:32.171Z,41.45
2022-07-29T22:54:34.265Z,41.75
2022-07-29T22:57:36.555Z,41.73
2022-07-29T23:00:38.710Z,41.56
2022-07-29T23:03:41.026Z,41.42
2022-07-29T23:06:53.590Z,41.58
2022-07-29T23:09:55.877Z,41.66
2022-07-29T23:12:58.003Z,42.03
2022-07-29T23:16:01.067Z,42.35
2022-07-29T23:19:03.259Z,42.50
2022-07-29T23:22:05.422Z,42.86
2022-07-29T23:25:07.895Z,43.11
2022-07-29T23:28:11.506Z,43.47
2022-07-29T23:31:14.587Z,43.02
2022-07-29T23:34:16.744Z,42.83
2022-07-29T23:37:18.823Z,43.24
2022-07-29T23:40:20.993Z,43.10
2022-07-29T23:43:23.090Z,43.66
2022-07-29T23:46:25.250Z,43.55
2022-07-29T23:49:27.438Z,43.70
2022-07-29T23:52:29.555Z,43.55
2022-07-29T23:55:37.297Z,43.80
2022-07-29T23:58:41.173Z,44.03
